createdAt,value
2023-06-10T00:00:57.698Z,14.10
2023-06-10T00:04:00.091Z,14.10
2023-06-10T00:07:02.332Z,14.20
2023-06-10T00:10:06.463Z,14.20
2023-06-10T00:13:12.359Z,14.10
2023-06-10T00:16:14.532Z,14.10
2023-06-10T00:19:16.732Z,14.10
2023-06-10T00:22:20.007Z,14.10
2023-06-10T00:25:22.282Z,14.20
2023-06-10T00:28:24.365Z,14.20
2023-06-10T00:31:29.479Z,14.20
2023-06-10T00:34:31.619Z,14.20
2023-06-10T00:37:36.815Z,14.10
2023-06-10T00:40:42.564Z,14.20
2023-06-10T00:43:45.356Z,14.20
2023-06-10T00:46:47.534Z,14.40
2023-06-10T00:49:51.886Z,14.40
2023-06-10T00:52:55.952Z,14.40
2023-06-10T00:55:58.519Z,14.50
2023-06-10T00:59:00.631Z,14.60
2023-06-10T01:02:04.844Z,14.60
2023-06-10T01:05:07.564Z,14.50
2023-06-10T01:08:20.727Z,14.50
2023-06-10T01:11:29.280Z,14.50
2023-06-10T01:14:32.901Z,14.40
2023-06-10T01:17:35.091Z,14.40
2023-06-10T01:20:42.123Z,14.40
2023-06-10T01:23:44.339Z,14.30
2023-06-10T01:26:51.235Z,14.20
2023-06-10T01:30:04.612Z,14.00
2023-06-10T01:33:10.663Z,13.90
2023-06-10T01:36:14.325Z,13.90
2023-06-10T01:39:18.595Z,13.80
2023-06-10T01:42:21.832Z,13.80
2023-06-10T01:45:23.951Z,13.80
2023-06-10T01:48:26.069Z,13.90
2023-06-10T01:51:28.153Z,13.90
2023-06-10T01:54:30.396Z,13.90
2023-06-10T01:57:32.545Z,13.80
2023-06-10T02:00:34.773Z,13.70
2023-06-10T02:03:37.057Z,13.70
2023-06-10T02:06:39.469Z,13.80
2023-06-10T02:09:41.523Z,13.80
2023-06-10T02:12:43.631Z,13.70
2023-06-10T02:15:45.920Z,13.60
2023-06-10T02:18:49.751Z,13.70
2023-06-10T02:21:51.986Z,13.70
2023-06-10T02:24:54.060Z,13.60
2023-06-10T02:27:56.129Z,13.60
2023-06-10T02:30:58.374Z,13.50
2023-06-10T02:34:00.509Z,13.40
2023-06-10T02:37:03.582Z,13.40
2023-06-10T02:40:07.328Z,13.30
2023-06-10T02:43:10.967Z,13.30
2023-06-10T02:46:13.084Z,13.20
2023-06-10T02:49:15.300Z,13.30
2023-06-10T02:52:17.403Z,13.30
2023-06-10T02:55:19.672Z,13.30
2023-06-10T02:58:22.345Z,13.30
2023-06-10T03:01:24.586Z,13.30
2023-06-10T03:04:30.165Z,13.30
2023-06-10T03:07:33.335Z,13.40
2023-06-10T03:10:35.959Z,13.40
2023-06-10T03:13:39.509Z,13.50
2023-06-10T03:16:41.825Z,13.60
2023-06-10T03:19:44.129Z,13.60
2023-06-10T03:22:46.434Z,13.60
2023-06-10T03:25:48.538Z,13.70
2023-06-10T03:28:50.624Z,13.60
2023-06-10T03:31:52.682Z,13.70
2023-06-10T03:34:58.305Z,13.70
2023-06-10T03:38:00.520Z,13.70
2023-06-10T03:41:02.612Z,13.70
2023-06-10T03:44:05.101Z,13.70
2023-06-10T03:47:07.382Z,13.80
2023-06-10T03:50:10.659Z,13.80
2023-06-10T03:53:12.734Z,13.90
2023-06-10T03:56:14.763Z,14.00
2023-06-10T03:59:16.813Z,14.00
2023-06-10T04:02:19.107Z,14.00
2023-06-10T04:05:24.203Z,14.10
2023-06-10T04:08:26.808Z,14.20
2023-06-10T04:11:29.277Z,14.30
2023-06-10T04:14:31.661Z,14.40
2023-06-10T04:17:33.777Z,14.50
2023-06-10T04:20:35.885Z,14.60
2023-06-10T04:23:38.815Z,14.70
2023-06-10T04:26:41.053Z,14.80
2023-06-10T04:29:43.168Z,14.90
2023-06-10T04:32:45.396Z,15.00
2023-06-10T04:35:48.735Z,15.10
2023-06-10T04:38:53.175Z,15.20
2023-06-10T04:41:55.193Z,15.30
2023-06-10T04:44:57.238Z,15.50
2023-06-10T04:47:59.451Z,15.70
2023-06-10T04:51:01.550Z,15.80
2023-06-10T04:54:05.044Z,15.80
2023-06-10T04:57:08.911Z,15.90
2023-06-10T05:00:11.572Z,16.00
2023-06-10T05:03:13.849Z,16.10
2023-06-10T05:06:16.137Z,16.20
2023-06-10T05:09:18.198Z,16.30
2023-06-10T05:12:20.235Z,16.50
2023-06-10T05:15:22.357Z,16.60
2023-06-10T05:18:24.496Z,16.60
2023-06-10T05:21:27.005Z,16.70
2023-06-10T05:24:29.545Z,16.80
2023-06-10T05:27:32.074Z,16.90
2023-06-10T05:30:34.186Z,17.00
2023-06-10T05:33:36.378Z,17.10
2023-06-10T05:36:38.752Z,17.20
2023-06-10T05:39:41.081Z,17.20
2023-06-10T05:42:43.087Z,17.40
2023-06-10T05:45:45.858Z,17.90
2023-06-10T05:48:48.009Z,18.60
2023-06-10T05:51:50.166Z,19.10
2023-06-10T05:54:52.256Z,19.30
2023-06-10T05:58:01.916Z,19.70
2023-06-10T06:01:03.983Z,20.00
2023-06-10T06:04:06.294Z,20.10
2023-06-10T06:07:08.519Z,19.90
2023-06-10T06:10:10.936Z,19.80
2023-06-10T06:13:13.245Z,19.80
2023-06-10T06:16:16.507Z,19.80
2023-06-10T06:19:18.676Z,20.00
2023-06-10T06:22:23.133Z,20.30
2023-06-10T06:25:25.240Z,20.90
2023-06-10T06:28:30.507Z,20.90
2023-06-10T06:31:33.222Z,20.70
2023-06-10T06:34:35.287Z,20.60
2023-06-10T06:37:37.677Z,21.00
2023-06-10T06:40:39.693Z,21.30
2023-06-10T06:43:43.451Z,21.70
2023-06-10T06:46:45.647Z,21.80
2023-06-10T06:49:48.665Z,22.00
2023-06-10T06:52:50.682Z,22.30
2023-06-10T06:55:52.812Z,22.60
2023-06-10T06:58:57.845Z,22.30
2023-06-10T07:02:00.375Z,21.90
2023-06-10T07:05:02.832Z,22.40
2023-06-10T07:08:05.273Z,22.80
2023-06-10T07:11:07.428Z,22.90
2023-06-10T07:14:09.538Z,23.40
2023-06-10T07:17:11.870Z,23.70
2023-06-10T07:20:15.827Z,23.70
2023-06-10T07:23:17.912Z,23.60
2023-06-10T07:26:20.181Z,24.10
2023-06-10T07:29:22.403Z,24.20
2023-06-10T07:32:25.062Z,24.10
2023-06-10T07:35:27.262Z,23.90
2023-06-10T07:38:29.328Z,23.90
2023-06-10T07:41:31.438Z,23.90
2023-06-10T07:44:33.562Z,24.30
2023-06-10T07:47:36.392Z,25.20
2023-06-10T07:50:38.524Z,25.50
2023-06-10T07:53:40.698Z,25.10
2023-06-10T07:56:42.767Z,24.20
2023-06-10T07:59:45.555Z,24.00
2023-06-10T08:02:48.431Z,24.00
2023-06-10T08:05:50.740Z,24.00
2023-06-10T08:08:52.869Z,24.40
2023-06-10T08:11:55.138Z,24.50
2023-06-10T08:14:57.566Z,24.70
2023-06-10T08:17:59.676Z,24.70
2023-06-10T08:21:01.830Z,25.00
2023-06-10T08:24:04.413Z,25.40
2023-06-10T08:27:07.216Z,25.00
2023-06-10T08:30:11.726Z,24.80
2023-06-10T08:33:13.977Z,24.60
2023-06-10T08:36:16.326Z,24.40
2023-06-10T08:39:18.610Z,24.30
2023-06-10T08:42:45.666Z,24.80
2023-06-10T08:45:50.292Z,25.60
2023-06-10T08:48:58.640Z,26.10
2023-06-10T08:52:03.223Z,26.60
2023-06-10T08:55:15.238Z,26.80
2023-06-10T08:58:17.494Z,27.20
2023-06-10T09:01:20.056Z,27.80
2023-06-10T09:04:22.824Z,27.20
2023-06-10T09:07:24.977Z,27.70
2023-06-10T09:10:27.818Z,27.10
2023-06-10T09:13:30.647Z,26.90
2023-06-10T09:16:32.757Z,27.20
2023-06-10T09:19:36.690Z,25.80
2023-06-10T09:22:39.169Z,26.40
2023-06-10T09:25:41.309Z,26.70
2023-06-10T09:28:46.173Z,25.70
2023-06-10T09:31:48.491Z,25.90
2023-06-10T09:34:52.100Z,27.20
2023-06-10T09:37:55.914Z,26.50
2023-06-10T09:40:58.020Z,25.60
2023-06-10T09:44:00.148Z,25.30
2023-06-10T09:47:02.248Z,25.10
2023-06-10T09:50:04.849Z,24.70
2023-06-10T09:53:08.311Z,24.60
2023-06-10T09:56:11.276Z,24.90
2023-06-10T09:59:13.485Z,25.60
2023-06-10T10:02:19.318Z,25.80
2023-06-10T10:05:23.416Z,26.40
2023-06-10T10:08:26.004Z,27.50
2023-06-10T10:11:29.000Z,27.10
2023-06-10T10:14:34.006Z,26.70
2023-06-10T10:17:47.129Z,26.00
2023-06-10T10:20:53.440Z,25.70
2023-06-10T10:24:06.607Z,25.90
2023-06-10T10:27:31.622Z,26.50
2023-06-10T10:30:41.143Z,27.00
2023-06-10T10:34:03.868Z,27.30
2023-06-10T10:37:06.123Z,27.50
2023-06-10T10:40:09.812Z,27.40
2023-06-10T10:43:31.765Z,26.60
2023-06-10T10:46:44.317Z,25.60
2023-06-10T10:49:50.005Z,25.20
2023-06-10T10:53:03.657Z,24.80
2023-06-10T10:56:06.839Z,24.40
2023-06-10T10:59:10.275Z,24.40
2023-06-10T11:02:19.977Z,24.10
2023-06-10T11:05:33.545Z,24.10
2023-06-10T11:08:48.971Z,24.40
2023-06-10T11:11:51.811Z,24.70
2023-06-10T11:14:59.773Z,24.80
2023-06-10T11:18:25.186Z,25.10
2023-06-10T11:21:29.023Z,25.60
2023-06-10T11:24:31.830Z,25.60
2023-06-10T11:27:42.937Z,26.20
2023-06-10T11:30:45.082Z,26.30
2023-06-10T11:33:49.203Z,26.60
2023-06-10T11:36:52.244Z,26.70
2023-06-10T11:39:55.998Z,26.80
2023-06-10T11:42:59.573Z,26.80
2023-06-10T11:46:03.285Z,26.80
2023-06-10T11:49:06.646Z,27.40
2023-06-10T11:52:08.824Z,27.80
2023-06-10T11:55:11.475Z,27.50
2023-06-10T11:58:18.096Z,27.20
2023-06-10T12:01:28.714Z,27.00
2023-06-10T12:04:31.766Z,27.10
2023-06-10T12:07:34.429Z,27.20
2023-06-10T12:10:42.165Z,27.90
2023-06-10T12:13:51.879Z,28.60
2023-06-10T12:16:54.093Z,28.60
2023-06-10T12:19:56.173Z,28.00
2023-06-10T12:22:58.428Z,28.30
2023-06-10T12:26:01.211Z,28.70
2023-06-10T12:29:16.015Z,28.60
2023-06-10T12:32:18.112Z,29.20
2023-06-10T12:35:28.871Z,29.10
2023-06-10T12:38:31.543Z,28.20
2023-06-10T12:41:35.158Z,28.70
2023-06-10T12:44:42.440Z,28.60
2023-06-10T12:47:45.865Z,29.10
2023-06-10T12:50:58.900Z,30.00
2023-06-10T12:54:01.239Z,30.30
2023-06-10T12:57:03.780Z,29.50
2023-06-10T13:00:09.971Z,29.90
2023-06-10T13:03:12.255Z,30.70
2023-06-10T13:06:14.338Z,30.90
2023-06-10T13:09:17.143Z,29.70
2023-06-10T13:12:24.958Z,28.70
2023-06-10T13:15:42.648Z,28.70
2023-06-10T13:18:45.094Z,27.80
2023-06-10T13:21:47.128Z,27.10
2023-06-10T13:24:49.477Z,27.90
2023-06-10T13:27:51.610Z,27.90
2023-06-10T13:30:53.721Z,27.40
2023-06-10T13:33:55.901Z,26.70
2023-06-10T13:36:58.112Z,26.30
2023-06-10T13:40:00.801Z,26.60
2023-06-10T13:43:03.715Z,27.40
2023-06-10T13:46:05.820Z,28.60
2023-06-10T13:49:07.960Z,28.90
2023-06-10T13:52:10.066Z,28.30
2023-06-10T13:55:12.335Z,27.60
2023-06-10T13:58:14.924Z,27.50
2023-06-10T14:01:17.012Z,28.00
2023-06-10T14:04:19.198Z,27.60
2023-06-10T14:07:21.359Z,27.20
2023-06-10T14:10:23.720Z,26.80
2023-06-10T14:13:25.790Z,26.50
2023-06-10T14:16:28.637Z,26.30
2023-06-10T14:19:30.995Z,26.00
2023-06-10T14:22:33.058Z,25.90
2023-06-10T14:25:35.127Z,25.70
2023-06-10T14:28:37.274Z,25.60
2023-06-10T14:31:39.394Z,25.50
2023-06-10T14:34:45.790Z,25.60
2023-06-10T14:37:47.937Z,25.70
2023-06-10T14:40:50.064Z,25.70
2023-06-10T14:43:52.235Z,25.80
2023-06-10T14:46:54.351Z,26.20
2023-06-10T14:49:56.647Z,27.40
2023-06-10T14:52:58.955Z,27.60
2023-06-10T14:56:01.082Z,27.20
2023-06-10T14:59:03.259Z,26.80
2023-06-10T15:02:05.627Z,26.30
2023-06-10T15:05:08.270Z,25.90
2023-06-10T15:08:10.721Z,25.70
2023-06-10T15:11:12.781Z,25.60
2023-06-10T15:14:14.956Z,25.60
2023-06-10T15:17:16.995Z,25.50
2023-06-10T15:20:19.112Z,25.40
2023-06-10T15:23:21.260Z,25.30
2023-06-10T15:26:23.289Z,25.10
2023-06-10T15:29:25.457Z,25.00
2023-06-10T15:32:27.541Z,25.00
2023-06-10T15:35:29.762Z,24.90
2023-06-10T15:38:31.959Z,24.90
2023-06-10T15:41:35.497Z,25.00
2023-06-10T15:44:37.570Z,25.10
2023-06-10T15:47:41.885Z,25.20
2023-06-10T15:50:46.115Z,25.20
2023-06-10T15:53:48.440Z,25.30
2023-06-10T15:56:50.580Z,25.30
2023-06-10T15:59:52.715Z,25.30
2023-06-10T16:02:54.834Z,25.20
2023-06-10T16:05:56.995Z,25.00
2023-06-10T16:08:59.045Z,24.80
2023-06-10T16:12:01.194Z,24.50
2023-06-10T16:15:04.540Z,24.30
2023-06-10T16:18:06.866Z,24.10
2023-06-10T16:21:08.945Z,23.80
2023-06-10T16:24:12.573Z,23.80
2023-06-10T16:27:14.695Z,23.80
2023-06-10T16:30:16.946Z,23.70
2023-06-10T16:33:19.060Z,23.60
2023-06-10T16:36:21.233Z,23.60
2023-06-10T16:39:26.334Z,23.40
2023-06-10T16:42:28.353Z,23.30
2023-06-10T16:45:30.498Z,23.20
2023-06-10T16:48:32.623Z,23.10
2023-06-10T16:51:35.216Z,22.90
2023-06-10T16:54:37.280Z,22.90
2023-06-10T16:57:39.411Z,22.90
2023-06-10T17:00:45.497Z,22.90
2023-06-10T17:03:47.677Z,22.90
2023-06-10T17:06:50.369Z,23.00
2023-06-10T17:09:52.569Z,22.90
2023-06-10T17:12:54.687Z,22.90
2023-06-10T17:15:57.184Z,22.90
2023-06-10T17:18:59.460Z,22.90
2023-06-10T17:22:02.277Z,22.70
2023-06-10T17:25:04.623Z,22.50
2023-06-10T17:28:06.728Z,22.30
2023-06-10T17:31:08.841Z,22.20
2023-06-10T17:34:10.953Z,21.90
2023-06-10T17:37:13.117Z,21.70
2023-06-10T17:40:15.449Z,21.60
2023-06-10T17:43:17.549Z,21.40
2023-06-10T17:46:19.735Z,21.20
2023-06-10T17:49:31.914Z,21.10
2023-06-10T17:52:34.577Z,20.90
2023-06-10T17:55:37.160Z,20.80
2023-06-10T17:58:39.234Z,20.70
2023-06-10T18:01:41.477Z,20.50
2023-06-10T18:04:43.626Z,20.40
2023-06-10T18:07:45.789Z,20.30
2023-06-10T18:10:48.144Z,20.20
2023-06-10T18:13:53.260Z,20.20
2023-06-10T18:16:55.526Z,20.10
2023-06-10T18:19:57.598Z,20.00
2023-06-10T18:23:00.004Z,20.00
2023-06-10T18:26:02.175Z,19.90
2023-06-10T18:29:04.229Z,19.90
2023-06-10T18:32:07.939Z,20.00
2023-06-10T18:35:11.111Z,19.90
2023-06-10T18:38:13.510Z,19.90
2023-06-10T18:41:15.575Z,20.00
2023-06-10T18:44:17.665Z,20.00
2023-06-10T18:47:19.731Z,20.00
2023-06-10T18:50:21.945Z,20.00
2023-06-10T18:53:24.011Z,20.00
2023-06-10T18:56:26.268Z,19.90
2023-06-10T18:59:28.332Z,19.80
2023-06-10T19:02:30.521Z,19.80
2023-06-10T19:05:32.647Z,19.70
2023-06-10T19:08:34.738Z,19.70
2023-06-10T19:11:36.894Z,19.60
2023-06-10T19:14:41.495Z,19.60
2023-06-10T19:17:44.030Z,19.60
2023-06-10T19:20:46.223Z,19.50
2023-06-10T19:23:48.406Z,19.50
2023-06-10T19:26:50.601Z,19.50
2023-06-10T19:29:52.679Z,19.40
2023-06-10T19:32:54.802Z,19.40
2023-06-10T19:35:56.937Z,19.30
2023-06-10T19:38:59.059Z,19.30
2023-06-10T19:42:01.297Z,19.20
2023-06-10T19:45:03.968Z,19.10
2023-06-10T19:48:09.502Z,19.00
2023-06-10T19:51:13.616Z,19.00
2023-06-10T19:54:15.888Z,18.90
2023-06-10T19:57:18.171Z,18.90
2023-06-10T20:00:20.566Z,18.80
2023-06-10T20:03:23.749Z,18.80
2023-06-10T20:06:26.884Z,18.70
2023-06-10T20:09:29.756Z,18.70
2023-06-10T20:12:32.138Z,18.60
2023-06-10T20:15:34.274Z,18.50
2023-06-10T20:18:37.467Z,18.50
2023-06-10T20:21:39.579Z,18.40
2023-06-10T20:24:41.872Z,18.40
2023-06-10T20:27:47.120Z,18.30
2023-06-10T20:30:49.375Z,18.20
2023-06-10T20:33:51.735Z,18.20
2023-06-10T20:36:54.380Z,18.10
2023-06-10T20:39:56.393Z,18.00
2023-06-10T20:42:58.411Z,17.90
2023-06-10T20:46:01.071Z,17.90
2023-06-10T20:49:03.213Z,17.80
2023-06-10T20:52:05.791Z,17.80
2023-06-10T20:55:08.557Z,17.80
2023-06-10T20:58:11.258Z,17.80
2023-06-10T21:01:13.407Z,17.80
2023-06-10T21:04:15.632Z,17.80
2023-06-10T21:07:17.669Z,17.80
2023-06-10T21:10:20.104Z,17.80
2023-06-10T21:13:22.214Z,17.90
2023-06-10T21:16:24.383Z,17.90
2023-06-10T21:19:26.505Z,17.80
2023-06-10T21:22:28.578Z,17.80
2023-06-10T21:25:30.981Z,17.80
2023-06-10T21:28:33.460Z,17.80
2023-06-10T21:31:35.626Z,17.80
2023-06-10T21:34:37.786Z,17.90
2023-06-10T21:37:39.895Z,17.90
2023-06-10T21:40:41.945Z,17.90
2023-06-10T21:43:44.052Z,17.90
2023-06-10T21:46:46.294Z,17.90
2023-06-10T21:49:49.267Z,18.00
2023-06-10T21:52:51.334Z,18.00
2023-06-10T21:55:53.665Z,18.10
2023-06-10T21:58:55.768Z,18.00
2023-06-10T22:01:59.063Z,18.00
2023-06-10T22:05:01.128Z,17.90
2023-06-10T22:08:04.351Z,17.90
2023-06-10T22:11:06.745Z,17.90
2023-06-10T22:14:10.462Z,17.90
2023-06-10T22:17:13.459Z,17.90
2023-06-10T22:20:15.711Z,17.90
2023-06-10T22:23:23.896Z,17.90
2023-06-10T22:26:36.850Z,17.90
2023-06-10T22:29:45.827Z,17.90
2023-06-10T22:32:47.908Z,17.80
2023-06-10T22:35:49.961Z,17.80
2023-06-10T22:38:52.010Z,17.80
2023-06-10T22:41:54.102Z,17.80
2023-06-10T22:44:56.365Z,17.80
2023-06-10T22:47:58.820Z,17.80
2023-06-10T22:51:00.956Z,17.80
2023-06-10T22:54:03.052Z,17.80
2023-06-10T22:57:06.333Z,17.80
2023-06-10T23:00:08.889Z,17.70
2023-06-10T23:03:11.267Z,17.70
2023-06-10T23:06:13.464Z,17.70
2023-06-10T23:09:15.898Z,17.70
2023-06-10T23:12:18.057Z,17.70
2023-06-10T23:15:20.111Z,17.70
2023-06-10T23:18:22.876Z,17.60
2023-06-10T23:21:24.893Z,17.60
2023-06-10T23:24:31.658Z,17.60
2023-06-10T23:27:33.950Z,17.60
2023-06-10T23:30:36.042Z,17.50
2023-06-10T23:33:40.006Z,17.50
2023-06-10T23:36:42.271Z,17.50
2023-06-10T23:39:46.238Z,17.40
2023-06-10T23:42:48.773Z,17.40
2023-06-10T23:45:50.817Z,17.30
2023-06-10T23:48:53.306Z,17.20
2023-06-10T23:51:55.985Z,17.20
2023-06-10T23:54:59.511Z,17.20
2023-06-10T23:58:02.697Z,17.10
